KGRR/GRR METAR and TAF weather

Enter ICAO airport designator
Station Type Date Time Source
KGRR METAR 2021/09/20 05:53 UTC NOAA

KGRR 200553Z AUTO 15007KT 10SM CLR 20/16 A3007 RMK AO2 SLP180 T02000156 10244 20200 58001


Station Type Date Time Source
KGRR Decoded METAR 2021/09/20 05:53 UTC NOAA

GERALD R. FORD INTERNATIONAL, MI, United States (KGRR) 42-53N 085-31W 239M
Sep 20, 2021 - 01:53 AM EDT / 2021.09.20 0553 UTC
Wind: from the SSE (150 degrees) at 8 MPH (7 KT):0
Visibility: 10 mile(s):0
Sky conditions: clear
Temperature: 68.0 F (20.0 C)
Dew Point: 60.1 F (15.6 C)
Relative Humidity: 75%
Pressure (altimeter): 30.07 in. Hg (1018 hPa)
Pressure tendency: 0.00 inches (0.1 hPa) lower than three hours ago
ob: KGRR 200553Z AUTO 15007KT 10SM CLR 20/16 A3007 RMK AO2 SLP180 T02000156 10244 20200 58001
cycle: 6

Station Type Date Time Source
KGRR TAF 2021/09/20 06:42 UTC NOAA

TAF KGRR 200540Z 2006/2106 14008KT P6SM BKN250
FM201200 14008KT P6SM OVC050
FM201500 15008KT P6SM -SHRA OVC015
FM201800 15011KT 4SM BR VCSH OVC007
FM210000 17013KT 4SM BR OVC015

Example: see airport list